Time;durP1;ratioP1;P1;durP2;ratioP2;P2;SDS_P1;SDS_P2;PMS_P1;PMS_P2;Temp;Humidity;BMP_temperature;BMP_pressure;BME280_temperature;BME280_humidity;BME280_pressure;Samples;Min_cycle;Max_cycle;Signal;HPM_P1;HPM_P2
2022/06/28 00:01:26;;;;;;;2.95;2.70;;;;;;;20.12;72.79;101088.88;4993894;28;102256;-49
2022/06/28 00:03:53;;;;;;;3.00;2.80;;;;;;;20.11;72.63;101079.78;4993021;28;103965;-47
2022/06/28 00:06:19;;;;;;;3.00;2.70;;;;;;;20.11;72.51;101079.00;4996401;28;102416;-49
2022/06/28 00:08:48;;;;;;;3.00;2.75;;;;;;;20.11;72.62;101079.00;4992406;28;103773;-48
2022/06/28 00:11:15;;;;;;;3.40;3.07;;;;;;;20.11;72.82;101068.75;4994465;28;102380;-49
2022/06/28 00:13:42;;;;;;;2.90;2.70;;;;;;;20.11;72.55;101062.41;4994435;28;102092;-48
2022/06/28 00:16:14;;;;;;;3.35;3.05;;;;;;;20.11;72.84;101074.25;4994563;28;102402;-49
2022/06/28 00:18:41;;;;;;;3.20;2.90;;;;;;;20.11;72.69;101065.16;4992786;28;103978;-48
2022/06/28 00:21:09;;;;;;;3.22;2.92;;;;;;;20.11;72.62;101065.16;4994567;28;102350;-47
2022/06/28 00:23:38;;;;;;;3.70;3.05;;;;;;;20.11;72.78;101062.41;4993107;28;102184;-48
2022/06/28 00:26:07;;;;;;;3.50;2.90;;;;;;;20.10;72.61;101055.25;4994367;28;102662;-47
2022/06/28 00:28:34;;;;;;;3.50;3.20;;;;;;;20.11;72.60;101051.34;4990135;28;103938;-49
2022/06/28 00:31:01;;;;;;;3.00;2.80;;;;;;;20.10;72.53;101056.06;4975287;28;102271;-47
2022/06/28 00:33:28;;;;;;;3.10;2.85;;;;;;;20.11;72.60;101045.81;4974719;28;101993;-47
2022/06/28 00:35:55;;;;;;;3.30;3.00;;;;;;;20.10;72.69;101050.56;4990208;28;103640;-48
2022/06/28 00:38:21;;;;;;;3.22;3.03;;;;;;;20.11;72.63;101048.59;4993955;28;103884;-48
2022/06/28 00:40:49;;;;;;;4.40;2.92;;;;;;;20.11;72.69;101045.81;4995208;28;102198;-48
2022/06/28 00:43:19;;;;;;;3.53;3.15;;;;;;;20.09;72.66;101037.88;4989840;28;102288;-47
2022/06/28 00:45:46;;;;;;;3.55;2.90;;;;;;;20.11;72.75;101040.31;4994932;28;102227;-48
2022/06/28 00:48:14;;;;;;;3.65;2.83;;;;;;;20.10;72.60;101033.16;4993966;28;104235;-49
2022/06/28 00:50:41;;;;;;;3.53;3.00;;;;;;;20.10;72.69;101038.69;4994077;28;102695;-50
2022/06/28 00:53:10;;;;;;;3.10;2.80;;;;;;;20.10;72.91;101035.94;4994384;28;102469;-48
2022/06/28 00:55:37;;;;;;;3.50;3.20;;;;;;;20.10;72.70;101027.63;4993859;28;102597;-48
2022/06/28 00:58:04;;;;;;;4.63;2.60;;;;;;;20.10;72.66;101022.09;4993701;28;103815;-47
2022/06/28 01:00:36;;;;;;;4.40;2.92;;;;;;;20.09;72.62;101020.50;4989813;28;104744;-48
2022/06/28 01:03:06;;;;;;;3.00;2.78;;;;;;;20.09;72.62;101020.50;4995803;28;102480;-47
2022/06/28 01:05:34;;;;;;;3.38;3.08;;;;;;;20.09;72.73;101023.25;4998226;28;102769;-49
2022/06/28 01:08:01;;;;;;;2.70;2.50;;;;;;;20.10;72.59;101033.16;4997718;28;104092;-48
2022/06/28 01:10:28;;;;;;;2.92;2.72;;;;;;;20.09;72.60;101039.84;4997780;28;102514;-48
2022/06/28 01:12:54;;;;;;;2.80;2.60;;;;;;;20.09;72.56;101048.13;4997934;28;102384;-48
2022/06/28 01:15:21;;;;;;;2.50;2.30;;;;;;;20.09;73.04;101035.13;4982120;28;102145;-48
2022/06/28 01:17:49;;;;;;;3.28;2.97;;;;;;;20.09;72.83;101037.88;4977428;28;103947;-49
2022/06/28 01:20:16;;;;;;;3.00;2.73;;;;;;;20.09;72.73;101039.84;4977972;28;101957;-47
2022/06/28 01:22:44;;;;;;;3.42;3.08;;;;;;;20.09;72.93;101040.66;4989606;28;102044;-48
2022/06/28 01:25:12;;;;;;;4.68;3.10;;;;;;;20.09;72.76;101042.59;4997874;28;102189;-50
2022/06/28 01:27:39;;;;;;;4.28;2.83;;;;;;;20.09;72.83;101051.69;4997366;28;103900;-47
2022/06/28 01:30:08;;;;;;;3.15;2.95;;;;;;;20.09;72.64;101043.41;4996787;28;102276;-48
2022/06/28 01:32:35;;;;;;;3.05;2.85;;;;;;;20.09;72.72;101048.94;4997396;28;102221;-48
2022/06/28 01:35:02;;;;;;;4.95;3.17;;;;;;;20.09;72.71;101039.84;4997774;28;102197;-48
2022/06/28 01:37:29;;;;;;;2.90;2.70;;;;;;;20.09;72.78;101042.59;4997239;28;103765;-48
2022/06/28 01:39:57;;;;;;;3.00;2.80;;;;;;;20.09;72.88;101042.59;4985822;28;101984;-48
2022/06/28 01:42:25;;;;;;;3.27;2.90;;;;;;;20.08;72.72;101043.72;4995621;28;102088;-48
2022/06/28 01:44:53;;;;;;;3.00;2.70;;;;;;;20.08;72.72;101050.06;4998382;28;102222;-48
2022/06/28 01:47:22;;;;;;;3.20;3.00;;;;;;;20.08;72.64;101038.19;4996835;28;104066;-48
2022/06/28 01:49:49;;;;;;;3.10;2.80;;;;;;;20.07;72.79;101023.56;4985190;28;102031;-48
2022/06/28 01:52:16;;;;;;;3.03;2.83;;;;;;;20.08;72.83;101024.38;4996115;28;102457;-49
2022/06/28 01:54:42;;;;;;;3.78;3.10;;;;;;;20.07;72.73;101018.03;4997151;28;102606;-48
2022/06/28 01:57:11;;;;;;;3.08;2.88;;;;;;;20.08;72.85;101018.84;4996747;28;103685;-47
2022/06/28 01:59:38;;;;;;;2.92;2.72;;;;;;;20.08;72.67;101024.38;4997257;28;101953;-48
2022/06/28 02:02:07;;;;;;;3.10;2.90;;;;;;;20.08;72.77;101018.84;4996181;28;102296;-48
2022/06/28 02:04:33;;;;;;;3.67;3.10;;;;;;;20.08;72.72;101024.38;4997647;28;102247;-48
2022/06/28 02:07:00;;;;;;;3.20;2.92;;;;;;;20.08;72.75;101024.38;4996849;28;103985;-48
2022/06/28 02:09:27;;;;;;;4.65;3.00;;;;;;;20.08;72.76;101013.31;4996313;28;102103;-48
2022/06/28 02:11:54;;;;;;;5.38;2.88;;;;;;;20.09;72.80;101026.03;4995834;28;102519;-49
2022/06/28 02:14:23;;;;;;;3.15;2.92;;;;;;;20.09;72.64;101020.50;4997538;28;102458;-47
2022/06/28 02:16:49;;;;;;;3.40;3.10;;;;;;;20.07;72.86;101022.75;4995574;28;104295;-47
2022/06/28 02:19:16;;;;;;;3.30;3.08;;;;;;;20.08;72.66;101024.38;4994295;28;102203;-48
2022/06/28 02:21:44;;;;;;;3.15;2.95;;;;;;;20.07;72.84;101023.56;4995083;28;102201;-47
2022/06/28 02:24:13;;;;;;;3.30;3.00;;;;;;;20.08;72.80;101024.38;4996599;28;102600;-48
2022/06/28 02:26:40;;;;;;;3.13;2.90;;;;;;;20.07;72.74;101026.34;4995274;28;103981;-48
2022/06/28 02:29:07;;;;;;;3.65;3.17;;;;;;;20.08;72.56;101035.44;4996714;28;102566;-48
2022/06/28 02:31:38;;;;;;;3.25;2.95;;;;;;;20.08;72.89;101035.44;4995440;28;102263;-49
2022/06/28 02:34:05;;;;;;;3.80;3.50;;;;;;;20.07;72.43;101039.34;4997667;28;102435;-47
2022/06/28 02:42:13;;;;;;;3.65;3.35;;;;;;;20.08;72.71;101024.38;4939246;28;102333;-48
2022/06/28 02:44:39;;;;;;;6.30;3.42;;;;;;;20.08;72.46;101032.66;4992496;28;102199;-47
2022/06/28 02:47:07;;;;;;;3.50;3.20;;;;;;;20.07;72.85;101036.56;4995941;28;104090;-48
2022/06/28 02:49:34;;;;;;;3.93;3.60;;;;;;;20.07;72.53;101039.34;4991200;28;102867;-48
2022/06/28 02:52:00;;;;;;;3.35;3.10;;;;;;;20.07;72.64;101033.81;4991571;28;102237;-49
2022/06/28 02:54:27;;;;;;;3.40;3.10;;;;;;;20.07;72.65;101053.97;4997434;28;102292;-47
2022/06/28 02:56:54;;;;;;;3.17;2.97;;;;;;;20.08;72.69;101043.72;4993904;28;103870;-48
2022/06/28 02:59:20;;;;;;;3.15;2.85;;;;;;;20.08;72.35;101043.72;4995973;28;102019;-48
2022/06/28 03:01:47;;;;;;;3.83;3.40;;;;;;;20.08;72.54;101040.94;4995367;28;102627;-48
2022/06/28 03:04:15;;;;;;;3.17;2.97;;;;;;;20.08;72.57;101041.75;4994271;28;102751;-52
2022/06/28 03:06:42;;;;;;;3.23;2.93;;;;;;;20.09;72.52;101037.88;4995001;28;103950;-47
2022/06/28 03:09:10;;;;;;;4.00;3.33;;;;;;;20.09;72.72;101037.88;4993969;28;102343;-49
2022/06/28 03:11:37;;;;;;;;;;;;;;;20.11;72.60;101051.34;4992708;28;102391;-48
2022/06/28 03:14:04;;;;;;;3.47;3.17;;;;;;;20.09;72.48;101054.47;4995311;28;102740;-47
2022/06/28 03:16:30;;;;;;;3.30;3.00;;;;;;;20.10;72.62;101049.75;4994975;28;103925;-48
2022/06/28 03:18:57;;;;;;;3.10;2.90;;;;;;;20.10;72.55;101049.75;4995996;28;102218;-48
2022/06/28 03:21:25;;;;;;;3.70;3.40;;;;;;;20.11;72.77;101043.06;4994329;28;102014;-48
2022/06/28 03:23:52;;;;;;;3.50;3.30;;;;;;;20.11;72.82;101048.59;4996813;28;102192;-47
2022/06/28 03:26:18;;;;;;;3.42;3.13;;;;;;;20.11;72.68;101052.16;4994064;28;103904;-48
2022/06/28 03:28:45;;;;;;;3.40;2.70;;;;;;;20.12;72.82;101055.72;4995312;28;102600;-48
2022/06/28 03:31:12;;;;;;;3.50;3.20;;;;;;;20.12;72.80;101050.22;4995431;28;102336;-47
2022/06/28 03:33:38;;;;;;;3.50;3.20;;;;;;;20.12;72.70;101058.50;4995219;28;102413;-48
2022/06/28 03:36:05;;;;;;;3.10;2.80;;;;;;;20.12;72.82;101048.28;4994377;28;104167;-48
2022/06/28 03:38:33;;;;;;;3.45;3.20;;;;;;;20.12;72.71;101048.28;4975899;28;101951;-48
2022/06/28 03:41:00;;;;;;;3.80;3.50;;;;;;;20.13;72.73;101049.09;4985062;28;102284;-48
2022/06/28 03:43:26;;;;;;;3.35;3.13;;;;;;;20.12;72.70;101045.53;4995169;28;102136;-48
2022/06/28 03:45:54;;;;;;;4.40;3.40;;;;;;;20.12;72.65;101048.28;4994387;28;104043;-48
2022/06/28 03:48:20;;;;;;;3.75;3.40;;;;;;;20.13;72.67;101049.09;4996116;28;101963;-48
2022/06/28 03:50:47;;;;;;;3.33;3.03;;;;;;;20.13;72.68;101047.13;4994719;28;102228;-47
2022/06/28 03:53:13;;;;;;;3.45;3.15;;;;;;;20.13;72.78;101060.16;4996524;28;103638;-47
2022/06/28 03:55:41;;;;;;;3.75;3.22;;;;;;;20.13;72.79;101055.41;4993832;28;103888;-48
2022/06/28 03:58:08;;;;;;;3.30;3.10;;;;;;;20.13;72.68;101055.41;4994866;28;102289;-48
2022/06/28 04:00:34;;;;;;;3.33;3.13;;;;;;;20.13;72.85;101055.41;4994670;28;102403;-48
2022/06/28 04:03:01;;;;;;;3.63;3.30;;;;;;;20.14;72.60;101056.22;4996051;28;102567;-47
2022/06/28 04:05:28;;;;;;;3.35;3.05;;;;;;;20.13;72.89;101049.91;4993351;28;103882;-48
2022/06/28 04:07:55;;;;;;;3.90;3.60;;;;;;;20.13;72.81;101060.16;4995968;28;102440;-49
2022/06/28 04:10:21;;;;;;;2.95;2.75;;;;;;;20.15;72.83;101057.84;4994501;28;102438;-49
2022/06/28 04:12:49;;;;;;;3.67;3.38;;;;;;;20.16;72.63;101053.97;4995965;28;102282;-48
2022/06/28 04:15:16;;;;;;;3.70;3.08;;;;;;;20.16;72.73;101052.00;4987926;28;104093;-48
2022/06/28 04:17:44;;;;;;;3.50;3.20;;;;;;;20.17;72.64;101055.59;4994362;28;102353;-48
2022/06/28 04:20:11;;;;;;;3.77;3.47;;;;;;;20.18;72.78;101057.19;4994298;28;102505;-48
2022/06/28 04:22:38;;;;;;;3.25;3.05;;;;;;;20.18;72.72;101057.19;4994564;28;102573;-48
2022/06/28 04:25:05;;;;;;;3.65;3.35;;;;;;;20.19;72.70;101064.34;4993728;28;103810;-48
2022/06/28 04:27:32;;;;;;;3.80;3.45;;;;;;;20.18;72.59;101051.66;4995505;28;102392;-48
2022/06/28 04:30:00;;;;;;;3.42;3.13;;;;;;;20.18;72.71;101057.19;4993389;28;102074;-47
2022/06/28 04:32:27;;;;;;;3.50;3.03;;;;;;;20.17;72.54;101053.63;4995670;28;102384;-48
2022/06/28 04:34:54;;;;;;;3.45;3.17;;;;;;;20.19;72.48;101052.47;4992429;28;103895;-48
2022/06/28 04:37:21;;;;;;;3.70;3.40;;;;;;;20.19;72.42;101042.22;4993829;28;102016;-48
2022/06/28 04:39:47;;;;;;;3.35;3.10;;;;;;;20.19;72.51;101049.72;4994217;28;102292;-48
2022/06/28 04:42:14;;;;;;;3.92;3.33;;;;;;;20.20;72.48;101056.88;4981568;28;102096;-49
2022/06/28 04:44:41;;;;;;;3.58;3.28;;;;;;;20.20;72.63;101043.88;4992067;28;104015;-47
2022/06/28 04:47:10;;;;;;;3.53;3.22;;;;;;;20.20;72.58;101057.69;4995188;28;101952;-49
2022/06/28 04:49:37;;;;;;;3.65;3.30;;;;;;;20.20;72.47;101049.41;4993588;28;101961;-49
2022/06/28 04:52:05;;;;;;;3.60;3.30;;;;;;;20.22;72.54;101055.41;4995256;28;102368;-48
2022/06/28 04:54:31;;;;;;;3.57;3.30;;;;;;;20.20;72.65;101060.44;4993042;28;104084;-47
2022/06/28 04:56:58;;;;;;;3.40;3.20;;;;;;;20.21;72.46;101059.31;4993365;28;102413;-48
2022/06/28 04:59:26;;;;;;;4.45;3.50;;;;;;;20.21;72.45;101056.53;4994200;28;102317;-49
2022/06/28 05:01:52;;;;;;;3.25;3.05;;;;;;;20.20;72.53;101060.44;4993940;28;102067;-48
2022/06/28 05:04:20;;;;;;;4.03;3.35;;;;;;;20.21;72.66;101062.06;4994507;28;103898;-48
2022/06/28 05:06:47;;;;;;;3.33;3.13;;;;;;;20.21;72.52;101059.31;4994618;28;102336;-47
2022/06/28 05:09:13;;;;;;;3.97;3.67;;;;;;;20.21;72.48;101056.53;4994495;28;102325;-48
2022/06/28 05:11:40;;;;;;;3.72;3.42;;;;;;;20.21;72.56;101059.31;4994591;28;102582;-48
2022/06/28 05:14:06;;;;;;;3.70;3.40;;;;;;;20.24;72.50;101057.84;4994140;28;104183;-48
2022/06/28 05:16:33;;;;;;;5.35;3.80;;;;;;;20.25;72.37;101051.19;4994527;28;103594;-48
2022/06/28 05:19:00;;;;;;;3.90;3.60;;;;;;;20.24;72.47;101050.38;4994356;28;101939;-49
2022/06/28 05:21:28;;;;;;;3.95;3.30;;;;;;;20.25;72.27;101051.97;4990258;28;103677;-48
2022/06/28 05:23:55;;;;;;;4.00;3.65;;;;;;;20.26;72.29;101053.59;4993908;28;103923;-48
2022/06/28 05:26:21;;;;;;;3.72;3.42;;;;;;;20.26;72.42;101052.78;4994166;28;101787;-47
2022/06/28 05:28:48;;;;;;;3.80;3.50;;;;;;;20.27;72.28;101046.94;4985886;28;102908;-49
2022/06/28 05:31:14;;;;;;;3.75;3.40;;;;;;;20.26;72.21;101053.59;4992680;28;102348;-48
2022/06/28 05:33:41;;;;;;;4.00;3.70;;;;;;;20.29;72.14;101054.91;4990231;28;104012;-48
2022/06/28 05:36:08;;;;;;;4.03;3.42;;;;;;;20.32;72.10;101045.94;4987388;28;102366;-47
2022/06/28 05:38:36;;;;;;;4.05;3.75;;;;;;;20.34;72.22;101055.53;4991151;28;102382;-49
2022/06/28 05:41:03;;;;;;;3.87;3.57;;;;;;;20.38;72.14;101056.50;4991514;28;102253;-48
2022/06/28 05:43:29;;;;;;;3.67;3.25;;;;;;;20.39;72.07;101049.84;4993138;28;103932;-48
2022/06/28 05:45:56;;;;;;;4.22;3.80;;;;;;;20.42;72.00;101044.78;4994971;28;102322;-48
2022/06/28 05:48:23;;;;;;;4.03;3.63;;;;;;;20.42;71.81;101051.13;4996058;28;102346;-48
2022/06/28 05:50:50;;;;;;;3.90;3.60;;;;;;;20.45;71.80;101038.59;4997635;28;102344;-48
2022/06/28 05:53:16;;;;;;;3.95;3.65;;;;;;;20.45;71.70;101036.66;4996835;28;104004;-46
2022/06/28 05:55:44;;;;;;;4.75;3.88;;;;;;;20.45;71.81;101039.41;4996890;28;102056;-48
2022/06/28 05:58:11;;;;;;;3.70;3.40;;;;;;;20.48;71.69;101043.47;4997191;28;102289;-49
2022/06/28 06:00:39;;;;;;;3.95;3.58;;;;;;;20.49;71.82;101050.63;4997493;28;102778;-49
2022/06/28 06:03:06;;;;;;;4.00;3.60;;;;;;;20.50;71.66;101043.97;4996458;28;107999;-48
2022/06/28 06:05:33;;;;;;;3.67;3.38;;;;;;;20.50;71.60;101042.03;4997272;28;102164;-47
2022/06/28 06:07:59;;;;;;;3.88;3.50;;;;;;;20.51;71.46;101037.31;4997566;28;102292;-48
2022/06/28 06:10:26;;;;;;;3.88;3.58;;;;;;;20.51;71.68;101037.31;4989685;28;102976;-47
2022/06/28 06:12:54;;;;;;;3.95;3.65;;;;;;;20.54;71.58;101031.13;4983282;28;103956;-48
2022/06/28 06:15:20;;;;;;;4.53;4.03;;;;;;;20.55;71.62;101032.72;4996552;28;102401;-47
2022/06/28 06:17:47;;;;;;;4.50;3.70;;;;;;;20.57;71.52;101047.84;4995367;28;102239;-49
2022/06/28 06:20:14;;;;;;;3.92;3.63;;;;;;;20.58;71.52;101034.84;4996860;28;103100;-48
2022/06/28 06:22:40;;;;;;;4.35;3.95;;;;;;;20.58;71.60;101043.13;4995029;28;103874;-48
2022/06/28 06:25:09;;;;;;;4.40;4.00;;;;;;;20.57;71.58;101045.09;4996984;28;102071;-48
2022/06/28 06:27:37;;;;;;;4.20;3.80;;;;;;;20.60;71.43;101054.69;4996190;28;102131;-48
2022/06/28 06:30:06;;;;;;;6.63;3.80;;;;;;;20.59;71.25;101055.81;4996648;28;102631;-48
2022/06/28 06:32:35;;;;;;;6.00;4.15;;;;;;;20.58;71.29;101040.38;4995378;28;103816;-47
2022/06/28 06:35:02;;;;;;;4.32;3.80;;;;;;;20.58;71.08;101054.19;4993184;28;102365;-48
2022/06/28 06:37:28;;;;;;;4.07;3.67;;;;;;;20.60;71.41;101046.38;4990528;28;102299;-48
2022/06/28 06:39:55;;;;;;;4.10;3.78;;;;;;;20.59;71.18;101050.28;4994136;28;102400;-48
2022/06/28 06:42:22;;;;;;;4.40;3.97;;;;;;;20.59;71.12;101044.75;4994358;28;103873;-47
2022/06/28 06:44:48;;;;;;;5.80;4.20;;;;;;;20.59;71.09;101044.75;4996285;28;102334;-48
2022/06/28 06:47:16;;;;;;;4.45;4.05;;;;;;;20.62;71.30;101044.09;4996317;28;102100;-47
2022/06/28 06:49:43;;;;;;;4.50;4.10;;;;;;;20.66;71.17;101042.28;4995289;28;104233;-48
2022/06/28 06:52:09;;;;;;;4.60;4.20;;;;;;;20.66;71.25;101035.94;4995397;28;103839;-49
2022/06/28 06:54:36;;;;;;;6.53;4.53;;;;;;;20.64;71.17;101031.56;4996550;28;101995;-48
2022/06/28 06:57:03;;;;;;;6.03;4.22;;;;;;;20.66;71.01;101039.50;4992808;28;102493;-47
2022/06/28 06:59:29;;;;;;;4.53;4.13;;;;;;;20.68;70.95;101037.25;4995726;28;102754;-49
2022/06/28 07:01:56;;;;;;;4.75;3.97;;;;;;;20.71;71.06;101035.78;4974260;28;103968;-49
2022/06/28 07:04:24;;;;;;;4.03;3.70;;;;;;;20.69;71.09;101030.56;4995993;28;102634;-47
2022/06/28 07:06:51;;;;;;;5.00;4.53;;;;;;;20.69;71.00;101030.56;4994956;28;102237;-48
2022/06/28 07:09:17;;;;;;;4.35;3.95;;;;;;;20.69;70.76;101038.84;4990672;28;102165;-48
2022/06/28 07:11:44;;;;;;;4.90;4.45;;;;;;;20.71;70.98;101031.06;4993999;28;104090;-49
2022/06/28 07:14:10;;;;;;;4.45;4.05;;;;;;;20.71;70.97;101031.06;4996079;28;102204;-47
2022/06/28 07:16:38;;;;;;;4.97;4.00;;;;;;;20.72;70.93;101032.66;4995610;28;102252;-48
2022/06/28 07:19:04;;;;;;;7.72;4.10;;;;;;;20.75;70.70;101034.78;4996608;28;102150;-48
2022/06/28 07:21:32;;;;;;;6.03;3.90;;;;;;;20.75;70.96;101037.53;4993900;28;104011;-48
2022/06/28 07:23:59;;;;;;;4.90;4.30;;;;;;;20.75;70.93;101036.72;4991443;28;102682;-49
2022/06/28 07:26:25;;;;;;;4.55;4.15;;;;;;;20.75;70.85;101040.31;4994966;28;102225;-47
2022/06/28 07:28:52;;;;;;;6.88;4.30;;;;;;;20.77;70.86;101040.78;4996008;28;102313;-49
2022/06/28 07:31:19;;;;;;;4.88;4.13;;;;;;;20.77;70.79;101035.25;4995491;28;103976;-46
2022/06/28 07:33:46;;;;;;;6.00;4.93;;;;;;;20.81;70.69;101036.22;4996132;28;102364;-49
2022/06/28 07:36:15;;;;;;;4.53;4.10;;;;;;;20.82;70.78;101037.81;4991353;28;102583;-47
2022/06/28 07:38:44;;;;;;;4.75;3.90;;;;;;;20.80;70.75;101040.09;4994676;28;102577;-47
2022/06/28 07:41:10;;;;;;;5.28;4.78;;;;;;;20.80;70.63;101040.09;4993971;28;103994;-48
2022/06/28 07:43:37;;;;;;;5.10;4.57;;;;;;;20.78;70.54;101045.16;4987374;28;102485;-48
2022/06/28 07:46:03;;;;;;;6.40;4.45;;;;;;;20.79;70.67;101041.25;4988177;28;102442;-48
2022/06/28 07:48:30;;;;;;;5.68;5.07;;;;;;;20.75;70.55;101037.53;4991625;28;102296;-47
2022/06/28 07:53:43;;;;;;;4.55;4.15;;;;;;;20.79;70.50;101041.25;4976348;28;102164;-47
2022/06/28 07:56:10;;;;;;;5.20;4.13;;;;;;;20.79;70.59;101032.97;4991638;28;102677;-47
2022/06/28 07:58:40;;;;;;;4.95;4.45;;;;;;;20.78;70.49;101042.41;4993759;28;102355;-47
2022/06/28 08:01:08;;;;;;;5.43;4.93;;;;;;;20.80;70.37;101044.81;4994011;28;103975;-48
2022/06/28 08:03:35;;;;;;;5.28;4.63;;;;;;;20.80;70.40;101039.28;4995916;28;102248;-47
2022/06/28 08:06:02;;;;;;;5.15;4.65;;;;;;;20.78;70.47;101036.88;4992786;28;102095;-48
2022/06/28 08:08:28;;;;;;;5.05;4.55;;;;;;;20.80;70.47;101034.56;4995544;28;102149;-48
2022/06/28 08:10:56;;;;;;;4.88;4.38;;;;;;;20.85;70.49;101034.41;4994700;28;104032;-47
2022/06/28 08:13:23;;;;;;;5.43;4.57;;;;;;;20.83;70.48;101039.44;4992688;28;102200;-48
2022/06/28 08:15:49;;;;;;;4.53;4.13;;;;;;;20.81;70.52;101038.97;4994869;28;102590;-47
2022/06/28 08:18:16;;;;;;;4.32;3.92;;;;;;;20.83;70.49;101033.91;4994957;28;102144;-48
2022/06/28 08:20:43;;;;;;;5.22;4.72;;;;;;;20.85;70.26;101031.63;4993802;28;103750;-48
2022/06/28 08:23:11;;;;;;;5.85;4.30;;;;;;;20.85;70.43;101031.63;4992154;28;102416;-48
2022/06/28 08:25:38;;;;;;;6.55;4.47;;;;;;;20.87;70.24;101029.31;4989896;28;102190;-47
2022/06/28 08:28:06;;;;;;;4.80;4.30;;;;;;;20.88;70.45;101025.44;4993704;28;102250;-47
2022/06/28 08:30:33;;;;;;;6.47;4.97;;;;;;;20.85;70.27;101026.09;4989403;28;103871;-47
2022/06/28 08:33:00;;;;;;;6.72;4.60;;;;;;;20.84;70.17;101021.72;4991144;28;102166;-47
2022/06/28 08:35:27;;;;;;;5.05;4.55;;;;;;;20.85;70.36;101028.06;4994650;28;102308;-48
2022/06/28 08:37:53;;;;;;;6.10;4.60;;;;;;;20.82;70.04;101018.47;4994072;28;102299;-48
2022/06/28 08:40:22;;;;;;;5.40;4.90;;;;;;;20.82;69.93;101026.75;4990617;28;103960;-47
2022/06/28 08:42:52;;;;;;;;;;;;;;;20.84;70.08;101018.13;4987884;28;103211;-47
2022/06/28 08:45:21;;;;;;;6.40;4.40;;;;;;;20.88;70.10;101024.63;4992233;28;102199;-48
2022/06/28 08:47:51;;;;;;;5.35;4.85;;;;;;;20.87;70.08;101012.72;4993795;28;102201;-48
2022/06/28 08:50:23;;;;;;;4.38;3.97;;;;;;;20.90;70.22;101021.53;4993970;28;104337;-47
2022/06/28 08:52:53;;;;;;;5.57;4.70;;;;;;;20.84;69.92;101018.94;4993094;28;102354;-48
2022/06/28 08:55:21;;;;;;;4.72;4.32;;;;;;;20.86;70.17;101022.19;4992941;28;102248;-47
2022/06/28 08:57:47;;;;;;;5.05;4.47;;;;;;;20.87;70.09;101018.25;4994033;28;102196;-49
2022/06/28 09:00:14;;;;;;;5.47;4.93;;;;;;;20.85;69.94;101019.75;4994241;28;103999;-48
2022/06/28 09:02:44;;;;;;;5.63;5.13;;;;;;;20.87;70.10;101017.44;4994349;28;101893;-45
2022/06/28 09:05:11;;;;;;;;;;;;;;;21.10;68.86;101012.47;4992453;28;102340;-49
2022/06/28 09:07:39;;;;;;;7.80;4.80;;;;;;;21.01;69.66;101017.22;4994498;28;102663;-47
2022/06/28 09:10:06;;;;;;;5.60;5.05;;;;;;;21.00;69.37;101010.88;4992301;28;104294;-48
2022/06/28 09:12:33;;;;;;;5.45;4.82;;;;;;;21.08;68.82;101023.84;4993524;28;102553;-48
2022/06/28 09:15:04;;;;;;;6.82;4.75;;;;;;;21.05;69.13;101007.91;4991018;28;102670;-48
2022/06/28 09:17:33;;;;;;;7.35;5.07;;;;;;;20.99;69.45;101014.81;4993108;28;102715;-47
2022/06/28 09:20:03;;;;;;;5.88;4.78;;;;;;;20.95;69.88;101018.53;4986868;28;103850;-48
2022/06/28 09:22:33;;;;;;;5.35;4.85;;;;;;;20.91;69.69;101003.75;4992676;28;102395;-48
2022/06/28 09:25:02;;;;;;;5.97;4.93;;;;;;;20.87;69.91;101007.19;4990728;28;102190;-48
2022/06/28 09:27:31;;;;;;;7.07;4.93;;;;;;;20.91;69.89;101006.53;4996201;28;102199;-48
2022/06/28 09:29:59;;;;;;;5.40;4.90;;;;;;;20.91;69.67;101001.00;4997244;28;103873;-47
2022/06/28 09:32:28;;;;;;;5.25;4.78;;;;;;;20.91;69.49;101012.06;4995231;28;102469;-48
2022/06/28 09:34:56;;;;;;;4.50;4.07;;;;;;;20.93;69.74;101012.56;4996777;28;102159;-47
2022/06/28 09:37:43;;;;;;;5.05;4.65;;;;;;;20.86;69.64;101005.59;4996299;28;102596;-49
2022/06/28 09:40:12;;;;;;;5.25;4.75;;;;;;;20.86;69.56;101005.59;4990941;28;103894;-48
2022/06/28 09:42:40;;;;;;;5.25;4.65;;;;;;;20.90;69.71;100999.38;4992903;28;102629;-48
2022/06/28 09:45:07;;;;;;;5.05;4.35;;;;;;;20.88;69.59;100997.78;4991994;28;102110;-49
2022/06/28 09:47:34;;;;;;;5.40;4.90;;;;;;;20.87;69.53;100993.38;4996281;28;102126;-48
2022/06/28 09:50:05;;;;;;;5.78;4.70;;;;;;;20.86;69.66;100989.00;4996577;28;103918;-48
2022/06/28 09:52:34;;;;;;;5.88;5.28;;;;;;;20.87;69.54;101001.66;4995163;28;102193;-49
2022/06/28 09:55:01;;;;;;;7.10;5.32;;;;;;;20.92;69.33;100991.56;4996289;28;102304;-47
2022/06/28 09:57:31;;;;;;;5.65;4.85;;;;;;;20.95;69.38;100997.22;4994814;28;102743;-48
2022/06/28 09:59:59;;;;;;;5.28;4.78;;;;;;;20.89;69.38;101001.34;4994554;28;108064;-47
2022/06/28 10:02:25;;;;;;;5.87;4.90;;;;;;;20.86;69.19;101005.59;4994849;28;104416;-48
2022/06/28 10:04:52;;;;;;;5.80;5.20;;;;;;;20.91;69.56;100995.47;4993868;28;102605;-48
2022/06/28 10:07:19;;;;;;;5.80;4.60;;;;;;;20.87;69.39;100987.84;4996496;28;102380;-48
2022/06/28 10:09:47;;;;;;;5.57;4.78;;;;;;;20.86;69.16;100988.19;4992553;28;106277;-49
2022/06/28 10:15:02;;;;;;;6.32;5.13;;;;;;;20.82;69.06;100993.56;4993675;28;104756;-48
2022/06/28 10:17:49;;;;;;;6.50;5.30;;;;;;;20.84;69.47;100993.22;4995748;28;102159;-48
2022/06/28 10:20:20;;;;;;;7.43;5.13;;;;;;;20.93;69.37;100998.72;4992447;28;105229;-47
2022/06/28 10:22:47;;;;;;;5.53;4.90;;;;;;;20.87;69.23;100989.78;4993107;28;102418;-48
2022/06/28 10:25:18;;;;;;;6.00;4.82;;;;;;;20.85;69.46;100997.63;4993675;28;102513;-48
2022/06/28 10:27:47;;;;;;;5.20;4.70;;;;;;;20.85;69.06;100987.38;4992017;28;102555;-48
2022/06/28 10:30:19;;;;;;;5.72;5.22;;;;;;;20.87;69.20;101001.66;4992582;28;103973;-47
2022/06/28 10:32:47;;;;;;;7.15;5.28;;;;;;;20.94;69.30;100989.28;4989321;28;102296;-47
2022/06/28 10:35:51;;;;;;;7.15;4.38;;;;;;;20.88;69.29;100985.91;4992029;28;102418;-47
2022/06/28 10:38:19;;;;;;;5.60;5.10;;;;;;;20.81;69.51;100978.13;4989638;28;102074;-48
2022/06/28 10:40:49;;;;;;;5.38;4.60;;;;;;;20.82;69.28;100976.97;4996815;28;104045;-47
2022/06/28 10:43:47;;;;;;;5.13;4.63;;;;;;;20.85;69.26;100976.31;4996477;28;102550;-47
2022/06/28 10:46:14;;;;;;;5.70;4.60;;;;;;;20.84;69.15;100971.94;4996298;28;102527;-49
2022/06/28 10:49:00;;;;;;;5.45;4.93;;;;;;;20.86;69.27;100977.91;4996717;28;102208;-48
2022/06/28 10:51:26;;;;;;;5.40;4.90;;;;;;;20.83;69.11;100969.47;4995787;28;104291;-48
2022/06/28 10:54:02;;;;;;;5.70;5.15;;;;;;;20.82;68.86;100954.03;4996030;28;102184;-48
2022/06/28 10:56:31;;;;;;;5.72;5.22;;;;;;;20.79;68.85;100972.09;4991813;28;102610;-47
2022/06/28 10:58:59;;;;;;;5.72;4.97;;;;;;;20.90;68.83;100960.66;4994685;28;102245;-49
2022/06/28 11:01:54;;;;;;;6.80;4.90;;;;;;;20.92;69.06;100959.19;4992114;28;103913;-48
2022/06/28 11:04:22;;;;;;;6.05;4.47;;;;;;;20.86;69.26;100958.56;4997076;28;102158;-48
2022/06/28 11:06:52;;;;;;;6.00;5.38;;;;;;;20.81;68.89;100964.28;4991639;28;102265;-48
2022/06/28 11:09:28;;;;;;;5.13;4.63;;;;;;;20.79;68.80;100955.50;4991270;28;103031;-48
2022/06/28 11:12:13;;;;;;;6.95;5.00;;;;;;;20.77;68.84;100951.44;4991632;28;106161;-47
2022/06/28 11:14:49;;;;;;;5.85;5.20;;;;;;;20.77;68.65;100946.75;4996110;28;102085;-47
2022/06/28 11:17:22;;;;;;;6.13;5.00;;;;;;;20.79;69.22;100963.81;4991105;28;104822;-47
2022/06/28 11:19:50;;;;;;;5.22;4.75;;;;;;;20.84;69.27;100958.09;4993245;28;102106;-46
2022/06/28 11:22:19;;;;;;;6.88;4.90;;;;;;;20.78;68.56;100951.13;4994151;28;103836;-48
2022/06/28 11:24:47;;;;;;;5.38;4.88;;;;;;;20.77;68.72;100952.28;4994982;28;102205;-49
2022/06/28 11:27:21;;;;;;;5.40;4.90;;;;;;;20.78;68.74;100953.09;4995766;28;102336;-49
2022/06/28 11:29:50;;;;;;;5.70;5.03;;;;;;;20.77;68.57;100949.53;4997014;28;102283;-47
2022/06/28 11:32:18;;;;;;;5.55;5.05;;;;;;;20.78;68.82;100950.31;4995500;28;104193;-49